createdAt,value
2023-01-27T00:00:01.714Z,51.39
2023-01-27T00:02:03.008Z,51.94
2023-01-27T00:04:04.864Z,52.38
2023-01-27T00:06:06.518Z,52.57
2023-01-27T00:08:07.939Z,52.95
2023-01-27T00:10:09.241Z,53.19
2023-01-27T00:12:29.179Z,53.28
2023-01-27T00:14:30.546Z,53.64
2023-01-27T00:16:31.854Z,53.75
2023-01-27T00:18:33.182Z,54.42
2023-01-27T00:20:52.938Z,54.47
2023-01-27T00:23:12.895Z,55.00
2023-01-27T00:25:14.252Z,55.05
2023-01-27T00:27:15.593Z,54.77
2023-01-27T00:29:16.896Z,55.44
2023-01-27T00:31:36.996Z,55.64
2023-01-27T00:33:38.378Z,56.25
2023-01-27T00:35:39.677Z,56.33
2023-01-27T00:37:41.011Z,56.53
2023-01-27T00:39:42.294Z,55.49
2023-01-27T00:41:43.624Z,56.14
2023-01-27T00:43:44.918Z,55.89
2023-01-27T00:45:49.376Z,55.70
2023-01-27T00:47:50.870Z,55.81
2023-01-27T00:49:53.143Z,55.96
2023-01-27T00:51:55.113Z,55.87
2023-01-27T00:53:56.587Z,55.85
2023-01-27T00:56:00.895Z,55.31
2023-01-27T00:58:02.211Z,55.26
2023-01-27T01:00:03.665Z,55.12
2023-01-27T01:02:05.070Z,54.91
2023-01-27T01:04:06.490Z,54.87
2023-01-27T01:06:07.939Z,54.79
2023-01-27T01:08:09.249Z,55.45
2023-01-27T01:10:10.786Z,55.31
2023-01-27T01:12:12.308Z,55.26
2023-01-27T01:14:13.649Z,55.12
2023-01-27T01:16:15.006Z,54.55
2023-01-27T01:18:16.338Z,54.71
2023-01-27T01:20:17.673Z,54.85
2023-01-27T01:22:19.009Z,55.25
2023-01-27T01:24:20.417Z,55.51
2023-01-27T01:26:21.776Z,55.44
2023-01-27T01:28:23.118Z,55.69
2023-01-27T01:30:26.369Z,55.68
2023-01-27T01:32:27.726Z,55.93
2023-01-27T01:34:29.030Z,55.55
2023-01-27T01:36:30.307Z,56.07
2023-01-27T01:38:31.633Z,56.25
2023-01-27T01:40:32.925Z,56.22
2023-01-27T01:42:34.259Z,56.54
2023-01-27T01:44:37.073Z,55.99
2023-01-27T01:46:38.400Z,55.59
2023-01-27T01:48:40.969Z,55.60
2023-01-27T01:50:42.271Z,55.79
2023-01-27T01:52:43.614Z,55.58
2023-01-27T01:54:44.951Z,55.56
2023-01-27T01:56:46.290Z,55.15
2023-01-27T01:58:47.634Z,55.13
2023-01-27T02:00:49.096Z,55.37
2023-01-27T02:02:50.412Z,55.55
2023-01-27T02:04:51.746Z,55.54
2023-01-27T02:06:53.043Z,55.02
2023-01-27T02:08:54.342Z,54.74
2023-01-27T02:10:55.668Z,55.27
2023-01-27T02:12:56.968Z,55.42
2023-01-27T02:14:58.266Z,54.94
2023-01-27T02:16:59.602Z,55.15
2023-01-27T02:19:00.913Z,55.13
2023-01-27T02:21:02.266Z,55.20
2023-01-27T02:23:03.731Z,54.66
2023-01-27T02:25:05.041Z,54.72
2023-01-27T02:27:06.331Z,54.94
2023-01-27T02:29:07.689Z,54.94
2023-01-27T02:31:09.088Z,55.03
2023-01-27T02:33:10.982Z,54.80
2023-01-27T02:35:12.621Z,55.15
2023-01-27T02:37:14.137Z,55.72
2023-01-27T02:39:15.452Z,55.67
2023-01-27T02:41:16.801Z,56.00
2023-01-27T02:43:18.183Z,56.28
2023-01-27T02:45:19.490Z,56.11
2023-01-27T02:47:20.866Z,56.64
2023-01-27T02:49:22.166Z,56.66
2023-01-27T02:51:23.506Z,56.92
2023-01-27T02:53:24.881Z,56.98
2023-01-27T02:55:26.706Z,56.97
2023-01-27T02:57:28.016Z,56.97
2023-01-27T02:59:29.351Z,57.06
2023-01-27T03:01:32.626Z,57.32
2023-01-27T03:03:34.110Z,57.16
2023-01-27T03:05:35.442Z,57.23
2023-01-27T03:07:36.766Z,57.00
2023-01-27T03:09:38.059Z,57.22
2023-01-27T03:11:57.796Z,56.87
2023-01-27T03:13:59.101Z,56.60
2023-01-27T03:16:19.061Z,56.59
2023-01-27T03:18:21.293Z,56.40
2023-01-27T03:20:22.629Z,56.65
2023-01-27T03:22:24.016Z,56.24
2023-01-27T03:24:25.341Z,55.68
2023-01-27T03:26:26.704Z,55.75
2023-01-27T03:28:28.037Z,55.84
2023-01-27T03:30:29.347Z,55.96
2023-01-27T03:32:30.710Z,55.59
2023-01-27T03:34:32.005Z,55.87
2023-01-27T03:36:52.076Z,55.58
2023-01-27T03:39:11.980Z,55.75
2023-01-27T03:41:31.885Z,55.01
2023-01-27T03:43:51.779Z,55.92
2023-01-27T03:46:11.636Z,55.61
2023-01-27T03:48:13.007Z,55.42
2023-01-27T03:50:19.249Z,56.00
2023-01-27T03:52:20.616Z,55.19
2023-01-27T03:54:21.953Z,54.52
2023-01-27T03:56:23.288Z,54.20
2023-01-27T03:58:24.583Z,54.21
2023-01-27T04:00:25.914Z,54.23
2023-01-27T04:02:45.783Z,54.10
2023-01-27T04:05:05.872Z,54.23
2023-01-27T04:07:07.194Z,54.39
2023-01-27T04:09:08.570Z,54.42
2023-01-27T04:11:30.860Z,54.30
2023-01-27T04:13:33.113Z,54.49
2023-01-27T04:15:34.509Z,54.39
2023-01-27T04:17:38.994Z,54.08
2023-01-27T04:19:40.378Z,54.36
2023-01-27T04:21:41.687Z,54.21
2023-01-27T04:23:43.018Z,53.98
2023-01-27T04:25:44.310Z,53.92
2023-01-27T04:27:45.633Z,53.67
2023-01-27T04:29:47.015Z,53.23
2023-01-27T04:31:48.581Z,53.09
2023-01-27T04:33:49.899Z,52.92
2023-01-27T04:35:51.237Z,52.76
2023-01-27T04:37:52.587Z,52.21
2023-01-27T04:39:53.936Z,52.11
2023-01-27T04:41:55.268Z,52.25
2023-01-27T04:43:56.584Z,52.04
2023-01-27T04:45:57.996Z,52.09
2023-01-27T04:47:59.301Z,52.04
2023-01-27T04:50:00.662Z,51.94
2023-01-27T04:52:02.233Z,51.50
2023-01-27T04:54:06.734Z,51.47
2023-01-27T04:56:08.088Z,51.62
2023-01-27T04:58:09.442Z,51.66
2023-01-27T05:00:10.738Z,51.52
2023-01-27T05:02:12.110Z,52.05
2023-01-27T05:04:13.485Z,51.82
2023-01-27T05:06:14.848Z,52.16
2023-01-27T05:08:16.275Z,52.41
2023-01-27T05:10:17.644Z,52.55
2023-01-27T05:12:18.943Z,52.55
2023-01-27T05:14:21.338Z,52.90
2023-01-27T05:16:23.656Z,52.80
2023-01-27T05:18:25.071Z,53.05
2023-01-27T05:20:26.401Z,53.16
2023-01-27T05:22:27.754Z,53.17
2023-01-27T05:24:29.235Z,52.96
2023-01-27T05:26:30.554Z,53.12
2023-01-27T05:28:31.871Z,53.34
2023-01-27T05:30:33.215Z,53.11
2023-01-27T05:32:34.647Z,53.19
2023-01-27T05:34:36.370Z,53.37
2023-01-27T05:36:38.043Z,53.18
2023-01-27T05:38:39.461Z,53.33
2023-01-27T05:40:40.750Z,53.19
2023-01-27T05:42:42.057Z,53.14
2023-01-27T05:44:43.387Z,53.09
2023-01-27T05:46:44.886Z,52.79
2023-01-27T05:48:46.282Z,52.65
2023-01-27T05:50:47.605Z,52.49
2023-01-27T05:52:49.064Z,52.12
2023-01-27T05:54:50.494Z,52.11
2023-01-27T05:56:51.827Z,51.91
2023-01-27T05:58:53.161Z,51.47
2023-01-27T06:00:54.561Z,51.29
2023-01-27T06:02:56.165Z,51.09
2023-01-27T06:04:57.546Z,51.34
2023-01-27T06:06:59.034Z,50.64
2023-01-27T06:09:00.327Z,50.70
2023-01-27T06:11:02.255Z,50.94
2023-01-27T06:13:03.559Z,50.76
2023-01-27T06:15:04.859Z,50.60
2023-01-27T06:17:06.199Z,51.01
2023-01-27T06:19:07.502Z,50.84
2023-01-27T06:21:08.817Z,50.89
2023-01-27T06:23:10.117Z,50.88
2023-01-27T06:25:12.034Z,50.69
2023-01-27T06:27:13.534Z,51.05
2023-01-27T06:29:14.835Z,51.35
2023-01-27T06:31:16.279Z,51.33
2023-01-27T06:33:17.766Z,51.39
2023-01-27T06:35:19.170Z,51.34
2023-01-27T06:37:20.527Z,51.31
2023-01-27T06:39:21.857Z,51.25
2023-01-27T06:41:23.300Z,51.25
2023-01-27T06:43:24.584Z,51.46
2023-01-27T06:45:26.883Z,51.65
2023-01-27T06:47:28.181Z,51.48
2023-01-27T06:49:29.764Z,51.88
2023-01-27T06:51:31.060Z,51.75
2023-01-27T06:53:32.665Z,51.94
2023-01-27T06:55:34.176Z,51.88
2023-01-27T06:57:35.515Z,51.91
2023-01-27T06:59:36.837Z,52.01
2023-01-27T07:01:38.178Z,52.13
2023-01-27T07:03:39.569Z,52.28
2023-01-27T07:05:40.945Z,52.04
2023-01-27T07:07:42.279Z,52.02
2023-01-27T07:09:52.391Z,51.78
2023-01-27T07:11:54.318Z,51.70
2023-01-27T07:13:55.640Z,51.54
2023-01-27T07:15:56.979Z,51.50
2023-01-27T07:17:58.333Z,51.40
2023-01-27T07:19:59.642Z,51.06
2023-01-27T07:22:01.157Z,51.03
2023-01-27T07:24:02.508Z,50.84
2023-01-27T07:26:07.800Z,50.58
2023-01-27T07:28:17.076Z,50.56
2023-01-27T07:30:18.430Z,50.73
2023-01-27T07:32:19.790Z,50.43
2023-01-27T07:34:21.087Z,50.58
2023-01-27T07:36:22.431Z,50.59
2023-01-27T07:38:23.860Z,50.57
2023-01-27T07:40:25.209Z,50.42
2023-01-27T07:42:26.501Z,50.37
2023-01-27T07:44:27.797Z,50.28
2023-01-27T07:46:29.148Z,50.63
2023-01-27T07:48:30.490Z,50.73
2023-01-27T07:50:31.800Z,50.63
2023-01-27T07:52:33.171Z,50.76
2023-01-27T07:54:34.483Z,51.11
2023-01-27T07:56:36.493Z,51.03
2023-01-27T07:58:37.796Z,51.33
2023-01-27T08:00:39.435Z,51.01
2023-01-27T08:02:40.791Z,51.03
2023-01-27T08:04:52.468Z,51.00
2023-01-27T08:06:54.742Z,51.10
2023-01-27T08:08:56.088Z,51.19
2023-01-27T08:10:57.423Z,51.18
2023-01-27T08:12:58.783Z,51.41
2023-01-27T08:15:00.142Z,51.20
2023-01-27T08:17:02.214Z,51.26
2023-01-27T08:19:03.527Z,51.57
2023-01-27T08:21:04.860Z,51.40
2023-01-27T08:23:06.185Z,51.71
2023-01-27T08:25:07.509Z,51.64
2023-01-27T08:27:09.634Z,51.53
2023-01-27T08:29:10.945Z,51.16
2023-01-27T08:31:12.356Z,51.39
2023-01-27T08:33:13.698Z,51.19
2023-01-27T08:35:15.010Z,51.01
2023-01-27T08:37:16.343Z,50.90
2023-01-27T08:39:17.637Z,50.75
2023-01-27T08:41:18.937Z,50.66
2023-01-27T08:43:20.943Z,50.47
2023-01-27T08:45:22.246Z,49.97
2023-01-27T08:47:23.555Z,50.15
2023-01-27T08:49:24.849Z,49.64
2023-01-27T08:51:26.211Z,49.45
2023-01-27T08:53:27.574Z,49.75
2023-01-27T08:55:29.105Z,49.46
2023-01-27T08:57:32.456Z,49.64
2023-01-27T08:59:33.908Z,49.40
2023-01-27T09:01:35.262Z,49.75
2023-01-27T09:03:36.641Z,49.85
2023-01-27T09:05:37.943Z,49.36
2023-01-27T09:07:39.233Z,49.63
2023-01-27T09:09:40.604Z,49.74
2023-01-27T09:11:42.021Z,49.89
2023-01-27T09:13:43.323Z,49.94
2023-01-27T09:15:44.662Z,49.89
2023-01-27T09:17:47.185Z,50.13
2023-01-27T09:19:48.497Z,50.32
2023-01-27T09:21:49.818Z,50.36
2023-01-27T09:23:51.178Z,50.04
2023-01-27T09:25:52.487Z,50.35
2023-01-27T09:27:53.777Z,50.42
2023-01-27T09:29:55.071Z,50.32
2023-01-27T09:31:56.434Z,50.52
2023-01-27T09:33:57.794Z,50.57
2023-01-27T09:35:59.198Z,50.60
2023-01-27T09:38:00.636Z,50.78
2023-01-27T09:40:01.992Z,50.56
2023-01-27T09:42:03.310Z,50.75
2023-01-27T09:44:04.655Z,50.83
2023-01-27T09:46:06.094Z,51.18
2023-01-27T09:48:07.443Z,50.81
2023-01-27T09:50:08.799Z,50.66
2023-01-27T09:52:10.138Z,50.62
2023-01-27T09:54:11.472Z,50.44
2023-01-27T09:56:12.834Z,50.30
2023-01-27T09:58:14.131Z,50.74
2023-01-27T10:00:18.449Z,50.05
2023-01-27T10:02:19.757Z,49.98
2023-01-27T10:04:21.136Z,49.87
2023-01-27T10:06:22.536Z,49.37
2023-01-27T10:08:23.834Z,49.74
2023-01-27T10:10:25.175Z,49.19
2023-01-27T10:12:26.467Z,49.49
2023-01-27T10:14:27.943Z,49.35
2023-01-27T10:16:29.279Z,49.21
2023-01-27T10:18:30.597Z,49.33
2023-01-27T10:20:31.958Z,49.17
2023-01-27T10:22:33.297Z,49.27
2023-01-27T10:24:34.596Z,49.28
2023-01-27T10:26:36.195Z,49.06
2023-01-27T10:28:37.595Z,49.37
2023-01-27T10:30:39.017Z,49.25
2023-01-27T10:32:40.326Z,49.38
2023-01-27T10:34:41.618Z,49.13
2023-01-27T10:36:42.954Z,49.43
2023-01-27T10:38:44.278Z,49.43
2023-01-27T10:40:45.631Z,49.71
2023-01-27T10:42:46.945Z,49.47
2023-01-27T10:44:48.272Z,49.69
2023-01-27T10:46:49.774Z,49.76
2023-01-27T10:48:51.127Z,49.88
2023-01-27T10:50:52.422Z,49.69
2023-01-27T10:52:53.754Z,49.86
2023-01-27T10:54:55.074Z,50.05
2023-01-27T10:56:56.410Z,49.64
2023-01-27T10:58:57.729Z,49.88
2023-01-27T11:01:20.294Z,50.02
2023-01-27T11:03:21.731Z,50.25
2023-01-27T11:05:23.020Z,50.04
2023-01-27T11:07:24.352Z,50.04
2023-01-27T11:09:25.727Z,50.50
2023-01-27T11:11:45.265Z,50.24
2023-01-27T11:13:46.617Z,50.03
2023-01-27T11:15:47.896Z,50.29
2023-01-27T11:17:49.239Z,50.13
2023-01-27T11:19:50.540Z,49.92
2023-01-27T11:22:06.262Z,49.65
2023-01-27T11:24:08.776Z,49.35
2023-01-27T11:26:10.063Z,49.63
2023-01-27T11:28:11.386Z,49.30
2023-01-27T11:30:13.137Z,49.38
2023-01-27T11:32:14.694Z,49.26
2023-01-27T11:34:16.042Z,49.22
2023-01-27T11:36:17.335Z,48.94
2023-01-27T11:38:18.655Z,49.13
2023-01-27T11:40:19.997Z,49.17
2023-01-27T11:42:21.602Z,49.05
2023-01-27T11:44:22.908Z,48.79
2023-01-27T11:46:24.275Z,49.04
2023-01-27T11:48:25.643Z,48.65
2023-01-27T11:50:27.359Z,48.87
2023-01-27T11:52:29.145Z,48.55
2023-01-27T11:54:30.536Z,48.89
2023-01-27T11:56:31.880Z,49.09
2023-01-27T11:58:33.211Z,48.72
2023-01-27T12:00:34.557Z,49.12
2023-01-27T12:02:35.905Z,48.91
2023-01-27T12:04:37.311Z,49.13
2023-01-27T12:06:38.690Z,49.16
2023-01-27T12:08:40.133Z,49.36
2023-01-27T12:10:44.448Z,49.49
2023-01-27T12:12:45.739Z,49.69
2023-01-27T12:14:47.035Z,49.90
2023-01-27T12:16:48.368Z,49.68
2023-01-27T12:18:49.833Z,49.59
2023-01-27T12:20:51.608Z,49.75
2023-01-27T12:22:52.989Z,49.71
2023-01-27T12:24:54.314Z,49.53
2023-01-27T12:26:55.766Z,49.78
2023-01-27T12:28:57.087Z,49.86
2023-01-27T12:30:58.411Z,49.78
2023-01-27T12:32:59.731Z,49.79
2023-01-27T12:35:01.066Z,49.77
2023-01-27T12:37:02.353Z,49.58
2023-01-27T12:39:03.658Z,49.79
2023-01-27T12:41:05.046Z,49.44
2023-01-27T12:43:06.343Z,49.43
2023-01-27T12:45:07.662Z,49.44
2023-01-27T12:47:08.947Z,49.21
2023-01-27T12:49:10.249Z,49.25
2023-01-27T12:51:11.736Z,49.15
2023-01-27T12:53:13.029Z,49.05
2023-01-27T12:55:14.317Z,49.04
2023-01-27T12:57:17.421Z,48.81
2023-01-27T12:59:18.829Z,48.72
2023-01-27T13:01:20.177Z,48.64
2023-01-27T13:03:21.722Z,48.51
2023-01-27T13:05:23.026Z,48.71
2023-01-27T13:07:24.374Z,48.65
2023-01-27T13:09:26.648Z,48.79
2023-01-27T13:11:27.951Z,48.64
2023-01-27T13:13:29.334Z,48.33
2023-01-27T13:15:34.052Z,48.63
2023-01-27T13:17:35.363Z,48.69
2023-01-27T13:19:40.965Z,48.42
2023-01-27T13:21:42.320Z,48.50
2023-01-27T13:23:46.737Z,48.80
2023-01-27T13:25:48.279Z,48.54
2023-01-27T13:27:49.621Z,48.66
2023-01-27T13:29:50.965Z,41.83
2023-01-27T13:31:52.347Z,46.12
2023-01-27T13:33:53.663Z,45.38
2023-01-27T13:35:54.982Z,44.35
2023-01-27T13:37:56.270Z,44.53
2023-01-27T13:39:57.624Z,44.58
2023-01-27T13:41:58.926Z,45.49
2023-01-27T13:44:00.328Z,45.68
2023-01-27T13:46:01.626Z,46.12
2023-01-27T13:48:03.065Z,46.85
2023-01-27T13:50:04.706Z,49.11
2023-01-27T13:52:06.053Z,48.19
2023-01-27T13:54:07.406Z,47.60
2023-01-27T13:56:08.774Z,47.30
2023-01-27T13:58:12.748Z,47.95
2023-01-27T14:00:14.462Z,47.06
2023-01-27T14:02:15.872Z,47.39
2023-01-27T14:04:17.298Z,46.71
2023-01-27T14:06:18.602Z,47.09
2023-01-27T14:08:19.903Z,46.93
2023-01-27T14:10:21.233Z,46.89
2023-01-27T14:12:22.530Z,46.86
2023-01-27T14:14:23.824Z,46.83
2023-01-27T14:16:25.108Z,47.18
2023-01-27T14:18:26.541Z,47.19
2023-01-27T14:20:27.873Z,46.98
2023-01-27T14:22:29.342Z,47.19
2023-01-27T14:24:30.911Z,47.24
2023-01-27T14:26:32.273Z,47.71
2023-01-27T14:28:36.331Z,47.39
2023-01-27T14:30:37.691Z,48.20
2023-01-27T14:32:39.013Z,48.54
2023-01-27T14:34:43.298Z,48.40
2023-01-27T14:36:44.866Z,48.20
2023-01-27T14:38:48.233Z,48.98
2023-01-27T14:40:49.638Z,47.26
2023-01-27T14:42:50.970Z,47.56
2023-01-27T14:45:07.026Z,47.43
2023-01-27T14:47:08.343Z,47.79
2023-01-27T14:49:09.672Z,48.39
2023-01-27T14:51:12.084Z,48.47
2023-01-27T14:53:13.531Z,48.55
2023-01-27T14:55:15.811Z,48.79
2023-01-27T14:57:23.054Z,48.81
2023-01-27T14:59:24.343Z,48.87
2023-01-27T15:01:25.673Z,48.96
2023-01-27T15:03:27.971Z,48.88
2023-01-27T15:05:29.262Z,48.79
2023-01-27T15:07:30.554Z,48.93
2023-01-27T15:09:32.483Z,48.86
2023-01-27T15:11:37.351Z,48.82
2023-01-27T15:13:38.785Z,49.25
2023-01-27T15:15:42.034Z,48.56
2023-01-27T15:17:46.172Z,48.34
2023-01-27T15:19:47.479Z,47.55
2023-01-27T15:21:48.819Z,47.78
2023-01-27T15:23:50.183Z,47.89
2023-01-27T15:25:51.521Z,47.74
2023-01-27T15:27:52.824Z,47.38
2023-01-27T15:29:54.190Z,47.60
2023-01-27T15:32:01.302Z,48.09
2023-01-27T15:34:02.647Z,48.59
2023-01-27T15:36:03.938Z,48.38
2023-01-27T15:38:05.291Z,48.47
2023-01-27T15:40:06.581Z,48.90
2023-01-27T15:42:09.819Z,48.50
2023-01-27T15:44:13.771Z,49.32
2023-01-27T15:46:15.068Z,49.23
2023-01-27T15:48:16.366Z,49.31
2023-01-27T15:50:17.658Z,49.36
2023-01-27T15:52:18.976Z,49.72
2023-01-27T15:54:20.288Z,49.72
2023-01-27T15:56:21.622Z,49.81
2023-01-27T15:58:22.972Z,50.01
2023-01-27T16:00:24.299Z,50.68
2023-01-27T16:02:25.689Z,50.60
2023-01-27T16:04:27.052Z,50.83
2023-01-27T16:06:28.367Z,50.80
2023-01-27T16:08:29.703Z,51.32
2023-01-27T16:10:31.022Z,50.98
2023-01-27T16:12:32.410Z,51.47
2023-01-27T16:14:34.053Z,51.13
2023-01-27T16:16:35.521Z,51.68
2023-01-27T16:18:39.531Z,51.13
2023-01-27T16:20:40.874Z,51.82
2023-01-27T16:22:42.175Z,51.70
2023-01-27T16:24:43.470Z,51.72
2023-01-27T16:26:47.546Z,52.03
2023-01-27T16:28:48.842Z,51.82
2023-01-27T16:30:50.169Z,52.04
2023-01-27T16:32:54.559Z,52.33
2023-01-27T16:34:58.959Z,52.32
2023-01-27T16:37:00.253Z,51.98
2023-01-27T16:39:02.185Z,51.97
2023-01-27T16:41:03.681Z,51.86
2023-01-27T16:43:06.171Z,52.21
2023-01-27T16:45:09.605Z,51.90
2023-01-27T16:47:16.730Z,51.39
2023-01-27T16:49:18.681Z,51.22
2023-01-27T16:51:20.037Z,51.21
2023-01-27T16:53:21.410Z,50.90
2023-01-27T16:55:22.718Z,50.81
2023-01-27T16:57:24.121Z,51.09
2023-01-27T16:59:26.747Z,51.53
2023-01-27T17:01:28.174Z,51.75
2023-01-27T17:03:29.556Z,51.30
2023-01-27T17:05:30.997Z,52.06
2023-01-27T17:07:32.523Z,50.59
2023-01-27T17:09:35.430Z,49.79
2023-01-27T17:11:36.813Z,49.56
2023-01-27T17:13:41.244Z,49.10
2023-01-27T17:15:43.437Z,50.57
2023-01-27T17:17:47.828Z,50.39
2023-01-27T17:19:49.169Z,50.47
2023-01-27T17:21:50.463Z,49.77
2023-01-27T17:23:51.807Z,50.22
2023-01-27T17:25:55.998Z,51.24
2023-01-27T17:27:57.381Z,51.13
2023-01-27T17:29:58.718Z,50.93
2023-01-27T17:32:00.112Z,50.83
2023-01-27T17:34:02.250Z,50.76
2023-01-27T17:36:03.574Z,51.32
2023-01-27T17:38:10.695Z,51.14
2023-01-27T17:40:12.023Z,50.14
2023-01-27T17:42:13.363Z,51.05
2023-01-27T17:44:14.740Z,51.83
2023-01-27T17:46:16.398Z,51.27
2023-01-27T17:48:17.934Z,52.15
2023-01-27T17:50:19.229Z,51.25
2023-01-27T17:52:21.073Z,51.40
2023-01-27T17:54:22.423Z,51.42
2023-01-27T17:56:23.783Z,51.11
2023-01-27T17:58:25.127Z,50.67
2023-01-27T18:00:29.471Z,52.13
2023-01-27T18:02:30.873Z,52.00
2023-01-27T18:04:32.231Z,52.22
2023-01-27T18:06:33.572Z,52.49
2023-01-27T18:08:35.180Z,52.48
2023-01-27T18:10:39.440Z,52.54
2023-01-27T18:12:40.762Z,53.24
2023-01-27T18:14:42.093Z,52.47
2023-01-27T18:16:43.393Z,52.33
2023-01-27T18:18:44.774Z,52.86
2023-01-27T18:20:46.118Z,52.03
2023-01-27T18:22:47.734Z,52.23
2023-01-27T18:24:49.136Z,52.10
2023-01-27T18:26:50.578Z,52.15
2023-01-27T18:28:51.995Z,52.11
2023-01-27T18:30:53.365Z,54.03
2023-01-27T18:32:54.726Z,51.87
2023-01-27T18:34:56.127Z,52.26
2023-01-27T18:36:57.672Z,51.69
2023-01-27T18:38:58.999Z,52.25
2023-01-27T18:41:00.379Z,51.87
2023-01-27T18:43:02.205Z,51.71
2023-01-27T18:45:09.594Z,51.59
2023-01-27T18:47:10.926Z,51.83
2023-01-27T18:49:12.262Z,50.96
2023-01-27T18:51:13.688Z,50.47
2023-01-27T18:53:14.996Z,51.48
2023-01-27T18:55:19.624Z,50.99
2023-01-27T18:57:20.926Z,51.01
2023-01-27T18:59:22.254Z,50.98
2023-01-27T19:01:24.021Z,50.34
2023-01-27T19:03:25.346Z,50.23
2023-01-27T19:05:26.689Z,51.26
2023-01-27T19:07:28.044Z,51.46
2023-01-27T19:09:29.373Z,51.99
2023-01-27T19:11:32.876Z,52.31
2023-01-27T19:13:35.003Z,52.95
2023-01-27T19:15:39.703Z,52.63
2023-01-27T19:17:41.051Z,52.04
2023-01-27T19:19:45.265Z,51.61
2023-01-27T19:21:46.620Z,51.86
2023-01-27T19:23:49.526Z,51.70
2023-01-27T19:25:50.925Z,51.29
2023-01-27T19:27:52.509Z,50.88
2023-01-27T19:30:00.139Z,51.15
2023-01-27T19:32:03.715Z,51.45
2023-01-27T19:34:08.002Z,51.85
2023-01-27T19:36:12.176Z,52.00
2023-01-27T19:38:13.501Z,52.02
2023-01-27T19:40:14.817Z,52.38
2023-01-27T19:42:16.288Z,52.57
2023-01-27T19:44:20.597Z,52.52
2023-01-27T19:46:21.967Z,52.63
2023-01-27T19:48:23.282Z,52.20
2023-01-27T19:50:24.610Z,52.29
2023-01-27T19:52:29.258Z,51.64
2023-01-27T19:54:30.564Z,51.91
2023-01-27T19:56:32.533Z,50.86
2023-01-27T19:58:33.861Z,51.08
2023-01-27T20:00:35.181Z,50.52
2023-01-27T20:02:36.478Z,50.48
2023-01-27T20:04:38.798Z,50.50
2023-01-27T20:06:40.109Z,50.36
2023-01-27T20:08:41.405Z,51.05
2023-01-27T20:10:42.713Z,50.97
2023-01-27T20:12:44.363Z,50.85
2023-01-27T20:14:46.335Z,51.25
2023-01-27T20:16:47.734Z,51.74
2023-01-27T20:18:52.030Z,51.37
2023-01-27T20:20:53.349Z,51.48
2023-01-27T20:22:54.699Z,51.35
2023-01-27T20:24:56.069Z,51.30
2023-01-27T20:26:58.556Z,51.50
2023-01-27T20:28:59.876Z,50.91
2023-01-27T20:31:01.312Z,51.04
2023-01-27T20:33:02.948Z,51.33
2023-01-27T20:35:04.241Z,51.38
2023-01-27T20:37:05.541Z,52.10
2023-01-27T20:39:06.846Z,52.41
2023-01-27T20:41:08.177Z,51.37
2023-01-27T20:43:09.508Z,51.52
2023-01-27T20:45:10.844Z,50.83
2023-01-27T20:47:13.360Z,51.53
2023-01-27T20:49:14.697Z,50.90
2023-01-27T20:51:16.002Z,51.75
2023-01-27T20:53:22.975Z,51.32
2023-01-27T20:55:24.302Z,50.80
2023-01-27T20:57:27.327Z,50.91
2023-01-27T20:59:28.700Z,51.46
2023-01-27T21:01:30.073Z,51.29
2023-01-27T21:03:31.374Z,50.84
2023-01-27T21:05:34.355Z,50.07
2023-01-27T21:07:35.706Z,50.34
2023-01-27T21:09:37.005Z,50.31
2023-01-27T21:11:38.340Z,50.54
2023-01-27T21:13:39.667Z,51.40
2023-01-27T21:15:41.008Z,51.06
2023-01-27T21:17:42.344Z,51.18
2023-01-27T21:19:43.765Z,51.64
2023-01-27T21:21:46.549Z,51.45
2023-01-27T21:23:47.856Z,51.25
2023-01-27T21:25:49.165Z,51.16
2023-01-27T21:27:50.460Z,52.02
2023-01-27T21:29:52.957Z,51.83
2023-01-27T21:31:54.372Z,51.44
2023-01-27T21:33:55.715Z,51.17
2023-01-27T21:35:57.062Z,51.67
2023-01-27T21:37:58.436Z,51.04
2023-01-27T21:39:59.771Z,51.37
2023-01-27T21:42:01.116Z,51.09
2023-01-27T21:44:21.019Z,51.09
2023-01-27T21:46:22.356Z,51.11
2023-01-27T21:48:23.687Z,51.32
2023-01-27T21:50:25.046Z,51.15
2023-01-27T21:52:26.654Z,51.29
2023-01-27T21:54:27.953Z,50.90
2023-01-27T21:56:35.078Z,51.30
2023-01-27T21:58:36.378Z,51.53
2023-01-27T22:00:37.819Z,51.28
2023-01-27T22:02:39.280Z,50.94
2023-01-27T22:04:40.627Z,51.31
2023-01-27T22:06:41.963Z,51.51
2023-01-27T22:08:43.261Z,51.18
2023-01-27T22:10:44.636Z,51.69
2023-01-27T22:12:45.999Z,51.74
2023-01-27T22:14:47.311Z,51.48
2023-01-27T22:16:48.664Z,52.22
2023-01-27T22:18:49.958Z,51.54
2023-01-27T22:20:51.286Z,51.51
2023-01-27T22:22:52.658Z,51.24
2023-01-27T22:24:53.978Z,51.47
2023-01-27T22:26:55.278Z,50.91
2023-01-27T22:28:56.611Z,51.16
2023-01-27T22:30:57.924Z,51.83
2023-01-27T22:33:01.578Z,52.45
2023-01-27T22:35:02.925Z,52.69
2023-01-27T22:37:04.235Z,52.35
2023-01-27T22:39:05.573Z,51.16
2023-01-27T22:41:06.866Z,51.80
2023-01-27T22:43:10.375Z,50.78
2023-01-27T22:45:11.736Z,50.53
2023-01-27T22:47:13.154Z,50.80
2023-01-27T22:49:14.451Z,51.35
2023-01-27T22:51:15.739Z,51.52
2023-01-27T22:53:17.080Z,50.89
2023-01-27T22:55:20.265Z,51.23
2023-01-27T22:57:21.865Z,51.04
2023-01-27T22:59:23.209Z,51.48
2023-01-27T23:01:24.580Z,51.11
2023-01-27T23:03:25.928Z,51.31
2023-01-27T23:05:27.227Z,51.34
2023-01-27T23:07:28.524Z,51.42
2023-01-27T23:09:29.835Z,51.36
2023-01-27T23:11:31.196Z,51.16
2023-01-27T23:13:32.491Z,51.35
2023-01-27T23:15:33.800Z,51.72
2023-01-27T23:17:35.143Z,51.01
2023-01-27T23:19:36.461Z,51.40
2023-01-27T23:21:37.738Z,50.92
2023-01-27T23:23:39.125Z,49.34
2023-01-27T23:25:40.462Z,49.56
2023-01-27T23:27:41.786Z,50.02
2023-01-27T23:29:43.118Z,49.89
2023-01-27T23:31:44.519Z,49.80
2023-01-27T23:33:47.962Z,50.27
2023-01-27T23:35:49.350Z,50.61
2023-01-27T23:37:50.662Z,50.61
2023-01-27T23:39:52.270Z,50.51
2023-01-27T23:41:53.569Z,50.96
2023-01-27T23:43:57.981Z,50.54
2023-01-27T23:45:59.347Z,51.64
2023-01-27T23:48:00.678Z,51.16
2023-01-27T23:50:02.284Z,51.07
2023-01-27T23:52:03.574Z,51.44
2023-01-27T23:54:04.863Z,50.65
2023-01-27T23:56:06.281Z,50.88
2023-01-27T23:58:07.592Z,50.69
